Time;durP1;ratioP1;P1;durP2;ratioP2;P2;SDS_P1;SDS_P2;PMS_P1;PMS_P2;Temp;Humidity;BMP_temperature;BMP_pressure;BME280_temperature;BME280_humidity;BME280_pressure;Samples;Min_cycle;Max_cycle;Signal;HPM_P1;HPM_P2
2023/04/13 00:02:24;;;;;;;1.80;1.27;;;;;;;;;;5027096;28;20237;-88
2023/04/13 00:04:53;;;;;;;1.40;1.30;;;;;;;;;;5024267;28;20231;-88
2023/04/13 00:07:21;;;;;;;2.20;1.17;;;;;;;;;;5017139;28;20223;-88
2023/04/13 00:09:49;;;;;;;1.90;1.27;;;;;;;;;;5029283;28;20213;-87
2023/04/13 00:12:20;;;;;;;1.50;1.40;;;;;;;;;;5025779;28;20310;-88
2023/04/13 00:14:49;;;;;;;2.20;1.40;;;;;;;;;;5024793;28;20313;-87
2023/04/13 00:17:17;;;;;;;2.27;1.30;;;;;;;;;;5027588;28;20230;-87
2023/04/13 00:19:46;;;;;;;1.53;1.30;;;;;;;;;;5028167;28;20207;-87
2023/04/13 00:22:14;;;;;;;1.37;1.37;;;;;;;;;;5025135;28;20276;-88
2023/04/13 00:24:42;;;;;;;1.53;1.47;;;;;;;;;;5024414;28;20223;-88
2023/04/13 00:27:09;;;;;;;1.30;1.20;;;;;;;;;;5024719;28;20272;-87
2023/04/13 00:29:36;;;;;;;1.77;1.63;;;;;;;;;;5023425;28;20204;-87
2023/04/13 00:32:04;;;;;;;1.27;1.27;;;;;;;;;;5019557;28;20231;-87
2023/04/13 00:34:32;;;;;;;2.33;1.50;;;;;;;;;;5027622;28;20216;-88
2023/04/13 00:37:00;;;;;;;2.20;1.27;;;;;;;;;;5027165;28;20231;-87
2023/04/13 00:39:30;;;;;;;1.20;1.20;;;;;;;;;;5024539;28;20206;-88
2023/04/13 00:42:00;;;;;;;1.40;1.23;;;;;;;;;;5023710;28;20318;-86
2023/04/13 00:44:29;;;;;;;2.77;1.47;;;;;;;;;;5026909;28;20226;-88
2023/04/13 00:46:56;;;;;;;1.40;1.40;;;;;;;;;;5015664;28;20239;-87
2023/04/13 00:49:23;;;;;;;2.23;1.67;;;;;;;;;;5020909;28;20208;-88
2023/04/13 00:51:52;;;;;;;2.77;1.30;;;;;;;;;;5027248;28;20231;-88
2023/04/13 00:54:21;;;;;;;3.13;1.60;;;;;;;;;;5018122;28;20219;-88
2023/04/13 00:56:49;;;;;;;1.30;1.20;;;;;;;;;;5017210;28;20778;-87
2023/04/13 00:59:17;;;;;;;1.87;1.50;;;;;;;;;;5024885;28;20229;-88
2023/04/13 01:01:49;;;;;;;1.60;1.40;;;;;;;;;;5031345;28;20328;-87
2023/04/13 01:04:17;;;;;;;2.67;1.60;;;;;;;;;;5025128;28;20229;-87
2023/04/13 01:06:48;;;;;;;1.50;1.40;;;;;;;;;;5022802;28;20251;-88
2023/04/13 01:09:19;;;;;;;1.93;1.80;;;;;;;;;;5023156;28;20204;-87
2023/04/13 01:11:49;;;;;;;2.03;1.23;;;;;;;;;;5029675;28;20233;-88
2023/04/13 01:14:23;;;;;;;1.67;1.57;;;;;;;;;;5021360;28;20269;-88
2023/04/13 01:16:52;;;;;;;1.50;1.43;;;;;;;;;;5023557;28;20256;-87
2023/04/13 01:19:23;;;;;;;1.67;1.43;;;;;;;;;;5021002;28;20234;-87
2023/04/13 01:21:53;;;;;;;4.33;1.43;;;;;;;;;;5023340;28;20234;-88
2023/04/13 01:24:37;;;;;;;1.70;1.60;;;;;;;;;;5034524;28;20353;-87
2023/04/13 01:27:08;;;;;;;1.40;1.30;;;;;;;;;;5022078;28;20576;-88
2023/04/13 01:29:37;;;;;;;2.60;1.50;;;;;;;;;;5022130;28;20601;-87
2023/04/13 01:32:04;;;;;;;3.30;1.40;;;;;;;;;;5024761;28;20313;-87
2023/04/13 01:34:31;;;;;;;1.50;1.40;;;;;;;;;;5027083;28;20666;-88
2023/04/13 01:37:00;;;;;;;2.93;1.77;;;;;;;;;;5021706;28;20619;-87
2023/04/13 01:39:30;;;;;;;2.50;1.47;;;;;;;;;;5021774;28;20287;-88
2023/04/13 01:41:57;;;;;;;5.77;1.30;;;;;;;;;;5023865;28;20318;-87
2023/04/13 01:44:25;;;;;;;1.43;1.33;;;;;;;;;;5025185;28;20237;-88
2023/04/13 01:46:59;;;;;;;2.40;1.83;;;;;;;;;;5023609;28;20234;-87
2023/04/13 01:49:27;;;;;;;2.07;1.43;;;;;;;;;;5019054;28;20203;-87
2023/04/13 01:51:56;;;;;;;1.50;1.40;;;;;;;;;;5020330;28;20235;-87
2023/04/13 01:54:26;;;;;;;2.83;1.50;;;;;;;;;;5027629;28;20230;-87
2023/04/13 01:56:56;;;;;;;1.03;1.03;;;;;;;;;;5026333;28;20780;-87
2023/04/13 01:59:23;;;;;;;2.00;1.50;;;;;;;;;;5034142;28;20242;-89
2023/04/13 02:01:50;;;;;;;1.70;1.60;;;;;;;;;;5024505;28;20316;-87
2023/04/13 02:04:18;;;;;;;1.80;1.70;;;;;;;;;;5031288;28;20230;-88
2023/04/13 02:06:47;;;;;;;1.80;1.70;;;;;;;;;;5022028;28;20242;-87
2023/04/13 02:09:14;;;;;;;1.70;1.60;;;;;;;;;;5034455;28;20245;-87
2023/04/13 02:11:42;;;;;;;2.87;1.87;;;;;;;;;;5035953;28;20650;-87
2023/04/13 02:14:10;;;;;;;3.30;1.70;;;;;;;;;;5020256;28;20234;-87
2023/04/13 02:16:37;;;;;;;2.93;1.60;;;;;;;;;;5028182;28;20230;-88
2023/04/13 02:19:04;;;;;;;2.00;1.60;;;;;;;;;;5014370;28;20207;-88
2023/04/13 02:21:33;;;;;;;4.53;1.80;;;;;;;;;;5013657;28;20234;-88
2023/04/13 02:24:01;;;;;;;1.37;1.27;;;;;;;;;;5017491;28;20237;-87
2023/04/13 02:26:28;;;;;;;3.10;1.50;;;;;;;;;;5013233;28;20235;-87
2023/04/13 02:28:55;;;;;;;3.30;1.73;;;;;;;;;;5023902;28;20692;-87
2023/04/13 02:31:22;;;;;;;1.60;1.50;;;;;;;;;;5024399;28;20707;-87
2023/04/13 02:33:50;;;;;;;1.43;1.40;;;;;;;;;;5020333;28;20227;-87
2023/04/13 02:36:18;;;;;;;2.27;1.63;;;;;;;;;;5012639;28;20283;-87
2023/04/13 02:38:46;;;;;;;4.17;1.60;;;;;;;;;;5023805;28;20214;-87
2023/04/13 02:41:14;;;;;;;3.50;1.90;;;;;;;;;;5028879;28;20646;-89
2023/04/13 02:43:42;;;;;;;1.60;1.50;;;;;;;;;;5023884;28;20233;-88
2023/04/13 02:46:09;;;;;;;3.47;1.80;;;;;;;;;;5013777;28;20939;-88
2023/04/13 02:48:36;;;;;;;3.40;1.70;;;;;;;;;;5022445;28;20688;-89
2023/04/13 02:51:04;;;;;;;1.90;1.60;;;;;;;;;;5012648;28;20709;-89
2023/04/13 02:53:31;;;;;;;2.00;1.70;;;;;;;;;;5025975;28;20704;-88
2023/04/13 02:55:59;;;;;;;1.73;1.60;;;;;;;;;;5032435;28;20230;-90
2023/04/13 02:58:31;;;;;;;2.27;1.87;;;;;;;;;;5032399;28;20683;-89
2023/04/13 03:00:58;;;;;;;6.23;1.63;;;;;;;;;;5019934;28;20254;-89
2023/04/13 03:03:25;;;;;;;5.40;1.77;;;;;;;;;;5012407;28;20242;-89
2023/04/13 03:05:52;;;;;;;1.60;1.50;;;;;;;;;;5012534;28;20247;-89
2023/04/13 03:08:20;;;;;;;1.47;1.37;;;;;;;;;;5012475;28;20651;-89
2023/04/13 03:10:47;;;;;;;2.87;2.20;;;;;;;;;;5012477;28;20281;-89
2023/04/13 03:13:15;;;;;;;1.97;1.60;;;;;;;;;;5018967;23;20231;-85
2023/04/13 03:15:42;;;;;;;1.80;1.53;;;;;;;;;;4996324;28;20584;-85
2023/04/13 03:18:09;;;;;;;1.53;1.30;;;;;;;;;;4999949;28;20286;-85
2023/04/13 03:20:36;;;;;;;4.70;2.17;;;;;;;;;;5000278;28;20204;-83
2023/04/13 03:23:04;;;;;;;1.80;1.70;;;;;;;;;;5006835;28;20223;-84
2023/04/13 03:25:31;;;;;;;3.73;2.20;;;;;;;;;;4999057;28;20223;-86
2023/04/13 03:27:58;;;;;;;5.33;2.00;;;;;;;;;;5001553;28;20204;-87
2023/04/13 03:30:28;;;;;;;6.13;2.00;;;;;;;;;;4999492;28;20201;-87
2023/04/13 03:32:55;;;;;;;1.40;1.37;;;;;;;;;;4995189;28;20227;-85
2023/04/13 03:35:22;;;;;;;1.60;1.50;;;;;;;;;;5003559;28;20610;-87
2023/04/13 03:37:49;;;;;;;5.93;2.13;;;;;;;;;;5000917;28;20208;-87
2023/04/13 03:40:16;;;;;;;6.20;2.00;;;;;;;;;;4993556;28;20208;-86
2023/04/13 03:42:43;;;;;;;1.83;1.63;;;;;;;;;;5001115;28;20234;-86
2023/04/13 03:45:11;;;;;;;4.43;1.87;;;;;;;;;;5000513;28;20231;-86
2023/04/13 03:47:40;;;;;;;2.00;1.80;;;;;;;;;;4995627;28;20238;-86
2023/04/13 03:50:08;;;;;;;2.33;1.60;;;;;;;;;;4998636;28;20208;-86
2023/04/13 03:52:35;;;;;;;4.00;1.73;;;;;;;;;;4999858;28;20593;-86
2023/04/13 03:55:02;;;;;;;3.83;2.00;;;;;;;;;;5000426;28;20210;-86
2023/04/13 03:57:30;;;;;;;1.70;1.60;;;;;;;;;;4991888;28;20250;-86
2023/04/13 03:59:57;;;;;;;1.70;1.60;;;;;;;;;;4994320;28;20200;-86
2023/04/13 04:02:24;;;;;;;4.20;1.57;;;;;;;;;;4999012;28;20231;-85
2023/04/13 04:04:53;;;;;;;2.03;1.57;;;;;;;;;;4999950;28;20714;-85
2023/04/13 04:07:21;;;;;;;4.67;1.90;;;;;;;;;;5002784;28;20712;-84
2023/04/13 04:09:48;;;;;;;1.67;1.40;;;;;;;;;;4995706;28;20207;-85
2023/04/13 04:12:15;;;;;;;2.00;1.37;;;;;;;;;;4996919;28;20243;-83
2023/04/13 04:14:43;;;;;;;1.50;1.40;;;;;;;;;;4997004;28;20550;-83
2023/04/13 04:17:10;;;;;;;4.57;1.60;;;;;;;;;;5004116;28;20231;-84
2023/04/13 04:19:37;;;;;;;2.47;1.80;;;;;;;;;;5004276;28;20238;-85
2023/04/13 04:22:06;;;;;;;1.70;1.60;;;;;;;;;;5004728;28;20243;-84
2023/04/13 04:24:34;;;;;;;5.47;1.80;;;;;;;;;;5006834;28;20207;-83
2023/04/13 04:27:01;;;;;;;2.30;1.80;;;;;;;;;;5004540;28;20235;-85
2023/04/13 04:29:33;;;;;;;3.17;2.13;;;;;;;;;;5008531;28;20218;-84
2023/04/13 04:32:01;;;;;;;2.57;2.00;;;;;;;;;;5004921;28;20258;-84
2023/04/13 04:34:28;;;;;;;2.60;1.50;;;;;;;;;;4995072;28;20692;-84
2023/04/13 04:36:55;;;;;;;1.77;1.67;;;;;;;;;;5004906;28;20231;-85
2023/04/13 04:39:25;;;;;;;1.80;1.70;;;;;;;;;;5006305;28;20212;-84
2023/04/13 04:41:53;;;;;;;2.37;1.60;;;;;;;;;;5005629;28;20243;-85
2023/04/13 04:44:23;;;;;;;1.67;1.57;;;;;;;;;;5006449;28;20207;-85
2023/04/13 04:46:52;;;;;;;2.93;2.00;;;;;;;;;;4996338;28;20236;-84
2023/04/13 04:49:20;;;;;;;5.77;2.20;;;;;;;;;;5005913;28;20951;-85
2023/04/13 04:51:48;;;;;;;3.00;2.80;;;;;;;;;;5005844;28;20619;-85
2023/04/13 04:54:17;;;;;;;4.67;2.20;;;;;;;;;;5003013;28;20331;-85
2023/04/13 04:56:45;;;;;;;4.30;2.00;;;;;;;;;;5002894;28;20248;-86
2023/04/13 04:59:12;;;;;;;3.33;2.00;;;;;;;;;;5002595;28;20208;-86
2023/04/13 05:01:41;;;;;;;2.83;1.80;;;;;;;;;;5002427;28;20228;-85
2023/04/13 05:04:08;;;;;;;3.67;1.80;;;;;;;;;;5005323;28;20232;-86
2023/04/13 05:06:36;;;;;;;3.93;1.73;;;;;;;;;;5005906;28;20854;-86
2023/04/13 05:09:04;;;;;;;6.13;2.10;;;;;;;;;;5004581;28;20207;-86
2023/04/13 05:11:32;;;;;;;2.30;1.60;;;;;;;;;;4999841;28;20760;-86
2023/04/13 05:14:00;;;;;;;2.40;1.60;;;;;;;;;;5005525;28;20286;-85
2023/04/13 05:16:29;;;;;;;3.60;1.80;;;;;;;;;;4999263;28;20724;-86
2023/04/13 05:18:56;;;;;;;1.77;1.40;;;;;;;;;;5005556;28;20207;-86
2023/04/13 05:21:23;;;;;;;2.10;1.60;;;;;;;;;;5002515;28;20230;-85
2023/04/13 05:23:50;;;;;;;1.90;1.63;;;;;;;;;;5002707;28;20208;-85
2023/04/13 05:26:19;;;;;;;4.70;1.97;;;;;;;;;;5014813;28;20246;-86
2023/04/13 05:28:46;;;;;;;4.13;1.80;;;;;;;;;;5006217;28;20204;-86
2023/04/13 05:31:15;;;;;;;2.90;1.77;;;;;;;;;;5002655;28;20235;-86
2023/04/13 05:33:42;;;;;;;4.27;2.30;;;;;;;;;;5002356;28;20740;-86
2023/04/13 05:36:09;;;;;;;1.50;1.40;;;;;;;;;;5004161;28;20231;-87
2023/04/13 05:38:36;;;;;;;5.63;2.00;;;;;;;;;;5003722;28;20207;-86
2023/04/13 05:41:04;;;;;;;4.53;2.10;;;;;;;;;;5004473;28;20260;-86
2023/04/13 05:43:31;;;;;;;4.10;2.07;;;;;;;;;;5002213;28;20224;-86
2023/04/13 05:45:58;;;;;;;2.60;2.10;;;;;;;;;;5001880;28;20254;-85
2023/04/13 05:48:27;;;;;;;5.13;1.93;;;;;;;;;;5005138;28;20623;-85
2023/04/13 05:50:57;;;;;;;4.40;2.23;;;;;;;;;;5014757;28;20246;-85
2023/04/13 05:53:24;;;;;;;9.33;2.60;;;;;;;;;;5013734;28;20311;-85
2023/04/13 05:55:51;;;;;;;4.07;2.33;;;;;;;;;;5013107;28;20716;-86
2023/04/13 05:58:19;;;;;;;3.67;2.23;;;;;;;;;;5013433;28;20203;-86
2023/04/13 06:00:46;;;;;;;1.53;1.43;;;;;;;;;;5014106;28;20231;-86
2023/04/13 06:03:13;;;;;;;3.97;1.87;;;;;;;;;;5015569;28;20231;-87
2023/04/13 06:05:43;;;;;;;2.10;1.90;;;;;;;;;;5018855;28;20219;-86
2023/04/13 06:08:10;;;;;;;3.13;1.83;;;;;;;;;;5017501;28;20198;-85
2023/04/13 06:10:37;;;;;;;2.90;1.83;;;;;;;;;;5015310;28;20273;-83
2023/04/13 06:13:04;;;;;;;4.53;2.27;;;;;;;;;;5013139;28;20609;-84
2023/04/13 06:15:32;;;;;;;3.07;1.80;;;;;;;;;;5012951;28;20582;-84
2023/04/13 06:17:59;;;;;;;3.70;1.80;;;;;;;;;;5013100;28;20206;-84
2023/04/13 06:20:26;;;;;;;4.03;2.40;;;;;;;;;;5012789;28;20211;-82
2023/04/13 06:22:54;;;;;;;4.10;2.20;;;;;;;;;;5013349;28;20310;-83
2023/04/13 06:25:22;;;;;;;3.70;2.03;;;;;;;;;;5013193;28;20261;-84
2023/04/13 06:27:49;;;;;;;2.20;1.67;;;;;;;;;;5012783;28;20226;-84
2023/04/13 06:30:16;;;;;;;4.00;1.90;;;;;;;;;;5012758;28;20615;-83
2023/04/13 06:32:43;;;;;;;2.70;1.67;;;;;;;;;;5012591;28;20717;-83
2023/04/13 06:35:11;;;;;;;1.70;1.60;;;;;;;;;;5013395;28;20214;-83
2023/04/13 06:37:38;;;;;;;4.67;2.27;;;;;;;;;;4985558;28;20652;-83
2023/04/13 06:40:11;;;;;;;5.73;1.93;;;;;;;;;;4987021;28;20255;-84
2023/04/13 06:42:39;;;;;;;4.73;2.27;;;;;;;;;;4986694;28;20246;-83
2023/04/13 06:45:07;;;;;;;7.47;2.20;;;;;;;;;;4983638;28;20658;-84
2023/04/13 06:47:34;;;;;;;4.07;2.10;;;;;;;;;;4987087;28;20235;-84
2023/04/13 06:50:04;;;;;;;5.87;2.20;;;;;;;;;;4987104;28;20271;-82
2023/04/13 06:52:31;;;;;;;7.50;2.80;;;;;;;;;;4986873;28;20240;-83
2023/04/13 06:54:58;;;;;;;2.07;1.77;;;;;;;;;;4986002;28;20212;-83
2023/04/13 06:57:26;;;;;;;3.80;1.97;;;;;;;;;;4993853;28;20235;-82
2023/04/13 06:59:54;;;;;;;5.83;2.13;;;;;;;;;;5000359;28;20204;-83
2023/04/13 07:02:21;;;;;;;7.23;2.30;;;;;;;;;;4995833;28;20239;-83
2023/04/13 07:04:48;;;;;;;7.30;1.97;;;;;;;;;;4994106;28;20732;-83
2023/04/13 07:07:15;;;;;;;5.10;2.17;;;;;;;;;;4993021;28;20236;-82
2023/04/13 07:09:42;;;;;;;8.83;2.60;;;;;;;;;;4993152;28;20200;-83
2023/04/13 07:12:10;;;;;;;4.73;1.90;;;;;;;;;;4991803;28;20659;-84
2023/04/13 07:14:39;;;;;;;6.73;2.80;;;;;;;;;;4994532;28;20606;-84
2023/04/13 07:17:06;;;;;;;6.23;2.27;;;;;;;;;;4992449;28;20717;-83
2023/04/13 07:19:34;;;;;;;6.80;2.20;;;;;;;;;;4984434;28;20211;-82
2023/04/13 07:22:03;;;;;;;6.20;2.90;;;;;;;;;;4992178;28;20232;-83
2023/04/13 07:24:30;;;;;;;3.57;2.20;;;;;;;;;;4993312;28;20212;-83
2023/04/13 07:26:58;;;;;;;5.57;2.30;;;;;;;;;;4992645;28;20243;-84
2023/04/13 07:29:25;;;;;;;4.40;2.30;;;;;;;;;;4991794;28;20212;-84
2023/04/13 07:31:53;;;;;;;10.63;4.03;;;;;;;;;;4991669;28;20347;-83
2023/04/13 07:34:20;;;;;;;8.73;2.30;;;;;;;;;;4992326;28;20276;-83
2023/04/13 07:36:48;;;;;;;5.20;2.73;;;;;;;;;;4992962;28;20224;-84
2023/04/13 07:39:15;;;;;;;7.80;2.50;;;;;;;;;;4995103;28;20583;-84
2023/04/13 07:41:42;;;;;;;5.20;2.10;;;;;;;;;;4994271;28;20235;-83
2023/04/13 07:44:09;;;;;;;5.50;2.47;;;;;;;;;;4992587;28;20204;-89
2023/04/13 07:46:36;;;;;;;5.77;2.17;;;;;;;;;;4994007;28;20314;-84
2023/04/13 07:49:05;;;;;;;9.47;2.03;;;;;;;;;;4986547;28;20200;-85
2023/04/13 07:51:33;;;;;;;8.63;2.40;;;;;;;;;;4990536;28;20259;-86
2023/04/13 07:54:01;;;;;;;6.37;2.30;;;;;;;;;;4999324;28;20642;-84
2023/04/13 07:56:29;;;;;;;5.03;2.47;;;;;;;;;;4981155;28;20224;-85
2023/04/13 07:58:56;;;;;;;4.57;2.17;;;;;;;;;;4997640;28;20204;-85
2023/04/13 08:01:23;;;;;;;3.43;2.07;;;;;;;;;;4995699;28;20231;-86
2023/04/13 08:03:51;;;;;;;7.13;2.40;;;;;;;;;;4996701;28;20204;-84
2023/04/13 08:06:21;;;;;;;6.20;2.37;;;;;;;;;;4994989;28;20819;-84
2023/04/13 08:08:48;;;;;;;6.87;2.30;;;;;;;;;;4995436;28;20604;-84
2023/04/13 08:11:15;;;;;;;2.47;2.03;;;;;;;;;;4995200;28;20247;-84
2023/04/13 08:13:42;;;;;;;3.23;2.30;;;;;;;;;;4994877;28;20236;-84
2023/04/13 08:16:10;;;;;;;3.93;1.93;;;;;;;;;;4994415;28;20238;-84
2023/04/13 08:18:37;;;;;;;6.53;1.97;;;;;;;;;;4986919;28;20292;-83
2023/04/13 08:21:10;;;;;;;4.23;2.20;;;;;;;;;;4994209;28;20232;-85
2023/04/13 08:23:40;;;;;;;7.63;2.27;;;;;;;;;;4996243;28;20228;-84
2023/04/13 08:26:07;;;;;;;11.10;2.53;;;;;;;;;;4996808;28;20270;-86
2023/04/13 08:28:35;;;;;;;5.40;2.30;;;;;;;;;;4994907;28;20256;-86
2023/04/13 08:31:02;;;;;;;5.83;2.73;;;;;;;;;;4994290;28;20452;-84
2023/04/13 08:33:30;;;;;;;5.17;2.33;;;;;;;;;;4987506;28;20228;-85
2023/04/13 08:35:58;;;;;;;7.47;2.00;;;;;;;;;;4994129;28;20312;-84
2023/04/13 08:38:25;;;;;;;7.13;2.53;;;;;;;;;;4993235;28;20212;-84
2023/04/13 08:40:54;;;;;;;6.17;2.60;;;;;;;;;;4989242;28;20264;-83
2023/04/13 08:43:21;;;;;;;9.27;2.57;;;;;;;;;;4986255;28;20232;-84
2023/04/13 08:45:48;;;;;;;8.47;3.43;;;;;;;;;;4994571;28;20243;-85
2023/04/13 08:48:17;;;;;;;4.83;1.87;;;;;;;;;;4993104;28;20236;-84
2023/04/13 08:50:45;;;;;;;5.57;2.33;;;;;;;;;;4993862;28;20232;-85
2023/04/13 08:53:12;;;;;;;6.10;2.27;;;;;;;;;;4993646;28;20231;-83
2023/04/13 08:55:44;;;;;;;2.20;2.00;;;;;;;;;;4993634;28;20208;-84
2023/04/13 08:58:13;;;;;;;5.37;2.40;;;;;;;;;;4991153;28;20258;-85
2023/04/13 09:00:42;;;;;;;3.30;1.97;;;;;;;;;;4993550;28;20298;-84
2023/04/13 09:03:12;;;;;;;4.97;2.50;;;;;;;;;;4994107;28;20286;-85
2023/04/13 09:05:40;;;;;;;4.87;1.93;;;;;;;;;;4993760;28;20295;-84
2023/04/13 09:08:08;;;;;;;6.67;2.33;;;;;;;;;;4993461;28;20264;-84
2023/04/13 09:10:35;;;;;;;7.03;3.27;;;;;;;;;;4993521;28;20701;-84
2023/04/13 09:13:02;;;;;;;4.27;2.73;;;;;;;;;;4986049;28;20242;-86
2023/04/13 09:15:31;;;;;;;5.87;1.90;;;;;;;;;;4993704;28;20215;-85
2023/04/13 09:18:08;;;;;;;4.40;2.07;;;;;;;;;;4994161;28;20263;-83
2023/04/13 09:20:35;;;;;;;7.50;2.10;;;;;;;;;;4986892;28;20238;-86
2023/04/13 09:23:12;;;;;;;5.13;2.17;;;;;;;;;;4996708;28;20287;-85
2023/04/13 09:25:40;;;;;;;6.47;2.60;;;;;;;;;;4994260;28;20211;-85
2023/04/13 09:28:08;;;;;;;6.23;2.43;;;;;;;;;;4996172;28;20230;-85
2023/04/13 09:30:36;;;;;;;4.43;2.23;;;;;;;;;;4993620;28;20239;-85
2023/04/13 09:33:04;;;;;;;4.70;2.33;;;;;;;;;;4994128;28;20239;-84
2023/04/13 09:35:31;;;;;;;6.57;2.07;;;;;;;;;;4993711;28;20862;-85
2023/04/13 09:37:58;;;;;;;5.97;2.37;;;;;;;;;;4993881;28;20231;-84
2023/04/13 09:40:26;;;;;;;3.10;1.87;;;;;;;;;;4993442;28;20212;-84
2023/04/13 09:42:56;;;;;;;5.10;1.90;;;;;;;;;;4994580;28;20255;-84
2023/04/13 09:45:23;;;;;;;5.17;2.30;;;;;;;;;;4992902;28;20208;-85
2023/04/13 09:47:54;;;;;;;6.73;2.57;;;;;;;;;;4986124;28;20224;-84
2023/04/13 09:50:22;;;;;;;6.03;2.30;;;;;;;;;;4997860;28;20267;-84
2023/04/13 09:52:59;;;;;;;8.60;2.37;;;;;;;;;;4993573;28;20235;-84
2023/04/13 09:55:27;;;;;;;4.87;2.50;;;;;;;;;;4993953;28;20212;-85
2023/04/13 09:57:54;;;;;;;5.80;2.47;;;;;;;;;;4994048;28;20208;-85
2023/04/13 10:00:22;;;;;;;6.50;2.60;;;;;;;;;;4985351;28;20208;-85
2023/04/13 10:02:49;;;;;;;6.37;2.50;;;;;;;;;;4992981;28;20228;-84
2023/04/13 10:05:18;;;;;;;3.50;1.70;;;;;;;;;;4993272;28;20200;-85
2023/04/13 10:07:47;;;;;;;4.93;2.50;;;;;;;;;;4994066;28;20267;-85
2023/04/13 10:10:15;;;;;;;4.10;1.93;;;;;;;;;;4994538;28;20208;-86
2023/04/13 10:12:44;;;;;;;8.43;2.60;;;;;;;;;;4992914;28;20683;-85
2023/04/13 10:15:17;;;;;;;4.90;2.80;;;;;;;;;;4993812;28;20212;-85
2023/04/13 10:17:52;;;;;;;5.63;2.40;;;;;;;;;;4993424;28;20223;-85
2023/04/13 10:20:21;;;;;;;2.97;2.03;;;;;;;;;;4992756;28;20230;-84
2023/04/13 10:22:48;;;;;;;4.33;2.20;;;;;;;;;;4984974;28;20234;-84
2023/04/13 10:25:17;;;;;;;3.40;1.97;;;;;;;;;;4992391;28;20212;-85
2023/04/13 10:27:44;;;;;;;6.07;2.23;;;;;;;;;;4986027;28;20235;-84
2023/04/13 10:30:15;;;;;;;3.43;2.00;;;;;;;;;;4993176;28;20204;-85
2023/04/13 10:32:42;;;;;;;4.00;2.20;;;;;;;;;;4992318;28;20294;-84
2023/04/13 10:35:10;;;;;;;5.47;2.10;;;;;;;;;;4993376;28;20208;-85
2023/04/13 10:37:40;;;;;;;3.33;2.10;;;;;;;;;;4991665;28;20228;-85
2023/04/13 10:40:09;;;;;;;4.70;1.87;;;;;;;;;;4993550;28;20243;-85
2023/04/13 10:42:43;;;;;;;3.57;1.93;;;;;;;;;;4983665;28;20327;-86
2023/04/13 10:45:20;;;;;;;2.23;1.60;;;;;;;;;;4992910;28;20204;-85
2023/04/13 10:47:47;;;;;;;2.37;2.13;;;;;;;;;;4992823;28;20278;-85
2023/04/13 10:50:18;;;;;;;3.20;1.70;;;;;;;;;;4993104;28;20208;-87
2023/04/13 10:53:03;;;;;;;2.17;1.60;;;;;;;;;;4979387;28;20235;-87
2023/04/13 10:55:31;;;;;;;3.17;1.80;;;;;;;;;;4993012;28;20204;-86
2023/04/13 10:57:58;;;;;;;2.43;1.70;;;;;;;;;;4993158;28;20259;-87
2023/04/13 11:00:26;;;;;;;1.70;1.47;;;;;;;;;;4992547;28;20204;-87
2023/04/13 11:02:55;;;;;;;2.47;1.60;;;;;;;;;;4993172;28;20327;-87
2023/04/13 11:05:23;;;;;;;2.63;1.50;;;;;;;;;;4993324;28;20725;-87
2023/04/13 11:07:50;;;;;;;3.43;1.60;;;;;;;;;;4993076;28;20231;-87
2023/04/13 11:10:24;;;;;;;3.20;1.50;;;;;;;;;;4993141;28;20212;-87
2023/04/13 11:12:51;;;;;;;3.00;1.50;;;;;;;;;;4992627;28;20228;-86
2023/04/13 11:15:22;;;;;;;3.27;2.50;;;;;;;;;;4992655;28;20212;-86
2023/04/13 11:17:55;;;;;;;3.80;1.53;;;;;;;;;;4992589;28;20248;-86
2023/04/13 11:20:30;;;;;;;1.90;1.50;;;;;;;;;;4992261;28;20299;-86
2023/04/13 11:22:57;;;;;;;3.03;1.20;;;;;;;;;;4992644;28;20231;-87
2023/04/13 11:25:26;;;;;;;1.93;1.53;;;;;;;;;;4992421;28;20204;-87
2023/04/13 11:27:58;;;;;;;2.87;1.50;;;;;;;;;;4998767;28;20231;-87
2023/04/13 11:30:25;;;;;;;1.13;1.03;;;;;;;;;;5000384;28;20270;-89
2023/04/13 11:33:05;;;;;;;2.10;1.23;;;;;;;;;;4999361;28;20472;-89
2023/04/13 11:35:34;;;;;;;1.20;1.10;;;;;;;;;;5000968;28;20218;-90
2023/04/13 11:38:02;;;;;;;3.60;1.50;;;;;;;;;;4997047;28;20204;-90
2023/04/13 11:40:30;;;;;;;1.77;1.23;;;;;;;;;;5002892;28;20219;-90
2023/04/13 11:42:58;;;;;;;2.63;1.50;;;;;;;;;;5006280;28;20228;-90
2023/04/13 11:45:28;;;;;;;2.80;1.30;;;;;;;;;;4997298;28;20215;-90
2023/04/13 11:47:56;;;;;;;1.93;1.50;;;;;;;;;;4992020;28;20696;-85
2023/04/13 11:50:23;;;;;;;3.73;1.60;;;;;;;;;;4984652;28;21235;-86
2023/04/13 11:52:55;;;;;;;1.07;0.93;;;;;;;;;;4993067;28;20705;-88
2023/04/13 11:55:22;;;;;;;2.57;1.30;;;;;;;;;;4993991;28;20212;-89
2023/04/13 11:57:51;;;;;;;1.57;1.30;;;;;;;;;;4998109;28;20216;-88
2023/04/13 12:00:21;;;;;;;2.10;1.43;;;;;;;;;;4993544;28;20267;-89
2023/04/13 12:02:48;;;;;;;3.87;1.87;;;;;;;;;;4993012;28;20315;-90
2023/04/13 12:05:23;;;;;;;2.77;1.50;;;;;;;;;;4993685;28;20215;-89
2023/04/13 12:07:50;;;;;;;3.47;1.50;;;;;;;;;;4992571;28;20238;-89
2023/04/13 12:10:23;;;;;;;2.73;1.57;;;;;;;;;;4992844;28;20208;-89
2023/04/13 12:12:59;;;;;;;2.30;1.10;;;;;;;;;;4991733;28;20652;-89
2023/04/13 12:15:27;;;;;;;0.90;0.90;;;;;;;;;;4986539;28;20216;-89
2023/04/13 12:17:55;;;;;;;3.30;1.43;;;;;;;;;;4986007;28;20220;-89
2023/04/13 12:20:22;;;;;;;2.40;1.63;;;;;;;;;;4975897;28;20221;-88
2023/04/13 12:22:49;;;;;;;3.60;1.57;;;;;;;;;;4987667;28;20256;-90
2023/04/13 12:25:17;;;;;;;2.40;1.53;;;;;;;;;;4980605;28;20205;-89
2023/04/13 12:27:44;;;;;;;2.33;1.40;;;;;;;;;;4991962;28;20729;-87
2023/04/13 12:30:14;;;;;;;3.40;1.43;;;;;;;;;;4992267;28;20291;-91
2023/04/13 12:32:41;;;;;;;3.70;1.40;;;;;;;;;;4990744;28;20607;-85
2023/04/13 12:35:08;;;;;;;1.87;1.00;;;;;;;;;;4990797;28;20924;-85
2023/04/13 12:37:36;;;;;;;5.90;1.73;;;;;;;;;;4993295;28;20693;-86
2023/04/13 12:40:08;;;;;;;3.43;1.27;;;;;;;;;;4994342;28;20322;-86
2023/04/13 12:42:35;;;;;;;6.07;1.70;;;;;;;;;;4984544;28;20820;-84
2023/04/13 12:45:02;;;;;;;2.30;1.60;;;;;;;;;;4982633;28;20216;-85
2023/04/13 12:47:31;;;;;;;2.97;1.80;;;;;;;;;;4991031;28;20642;-85
2023/04/13 12:49:58;;;;;;;3.63;2.00;;;;;;;;;;4987058;28;20214;-85
2023/04/13 12:52:27;;;;;;;2.08;1.50;;;;;;;;;;4992753;28;20247;-85
2023/04/13 12:54:54;;;;;;;1.67;1.20;;;;;;;;;;4993600;28;20208;-85
2023/04/13 12:57:22;;;;;;;3.20;1.10;;;;;;;;;;4993457;28;20263;-86
2023/04/13 12:59:49;;;;;;;3.33;1.55;;;;;;;;;;4993842;28;20204;-86
2023/04/13 13:02:16;;;;;;;2.13;1.10;;;;;;;;;;4986197;28;20236;-85
2023/04/13 13:04:44;;;;;;;3.15;1.25;;;;;;;;;;4982350;28;20694;-86
2023/04/13 13:07:11;;;;;;;4.60;1.70;;;;;;;;;;4989137;28;20705;-86
2023/04/13 13:09:38;;;;;;;3.40;1.70;;;;;;;;;;4990731;28;20238;-86
2023/04/13 13:12:06;;;;;;;2.42;1.50;;;;;;;;;;4987911;28;20242;-86
2023/04/13 13:14:33;;;;;;;7.03;1.40;;;;;;;;;;4984936;28;20208;-86
2023/04/13 13:17:01;;;;;;;2.80;1.42;;;;;;;;;;4992928;28;20236;-87
2023/04/13 13:19:28;;;;;;;3.40;1.50;;;;;;;;;;4993527;28;20212;-87
2023/04/13 13:21:57;;;;;;;3.38;1.52;;;;;;;;;;4984949;28;20248;-87
2023/04/13 13:24:24;;;;;;;6.82;1.58;;;;;;;;;;4993072;28;20212;-86
2023/04/13 13:26:51;;;;;;;3.00;1.45;;;;;;;;;;4993064;28;20909;-86
2023/04/13 13:29:18;;;;;;;3.30;1.52;;;;;;;;;;4982925;28;20239;-86
2023/04/13 13:31:45;;;;;;;2.22;1.58;;;;;;;;;;4984836;28;20244;-88
2023/04/13 13:34:12;;;;;;;4.78;1.58;;;;;;;;;;4993784;28;20224;-85
2023/04/13 13:36:39;;;;;;;3.20;1.65;;;;;;;;;;4993328;28;20231;-87
2023/04/13 13:39:08;;;;;;;2.60;1.38;;;;;;;;;;4993952;28;20208;-87
2023/04/13 13:41:35;;;;;;;2.67;1.40;;;;;;;;;;4993273;28;20239;-86
2023/04/13 13:44:02;;;;;;;2.05;1.40;;;;;;;;;;4993263;28;20215;-86
2023/04/13 13:46:29;;;;;;;3.05;1.60;;;;;;;;;;4990027;28;20672;-87
2023/04/13 13:48:57;;;;;;;3.20;1.17;;;;;;;;;;4993537;28;20239;-86
2023/04/13 13:51:26;;;;;;;1.35;1.25;;;;;;;;;;4984735;28;20299;-87
2023/04/13 13:53:53;;;;;;;3.30;1.38;;;;;;;;;;4986087;28;20204;-87
2023/04/13 13:56:21;;;;;;;1.67;1.27;;;;;;;;;;4985701;28;20323;-88
2023/04/13 13:58:49;;;;;;;3.03;1.27;;;;;;;;;;4993734;28;20201;-87
2023/04/13 14:01:16;;;;;;;1.83;1.20;;;;;;;;;;4993371;28;20239;-87
2023/04/13 14:03:43;;;;;;;2.35;1.20;;;;;;;;;;4993463;28;20663;-88
2023/04/13 14:06:10;;;;;;;0.60;0.60;;;;;;;;;;4993450;28;20236;-88
2023/04/13 14:08:37;;;;;;;0.57;0.57;;;;;;;;;;4984265;28;20235;-88
2023/04/13 14:11:05;;;;;;;0.60;0.60;;;;;;;;;;4986329;28;20255;-89
2023/04/13 14:13:33;;;;;;;1.55;0.60;;;;;;;;;;4993231;28;20247;-89
2023/04/13 14:16:00;;;;;;;0.98;0.75;;;;;;;;;;4988569;28;20233;-89
2023/04/13 14:18:28;;;;;;;0.85;0.60;;;;;;;;;;4983707;28;20209;-88
2023/04/13 14:20:55;;;;;;;1.45;0.70;;;;;;;;;;4981905;28;20734;-87
2023/04/13 14:23:22;;;;;;;0.85;0.70;;;;;;;;;;4988058;28;20624;-86
2023/04/13 14:25:49;;;;;;;0.98;0.50;;;;;;;;;;4981951;28;20244;-85
2023/04/13 14:28:17;;;;;;;1.60;0.80;;;;;;;;;;4988359;28;20916;-86
2023/04/13 14:30:45;;;;;;;1.27;0.77;;;;;;;;;;4992087;28;20346;-86
2023/04/13 14:33:13;;;;;;;1.13;0.73;;;;;;;;;;4986484;28;20229;-86
2023/04/13 14:35:40;;;;;;;2.17;1.00;;;;;;;;;;4983483;28;20217;-87
2023/04/13 14:38:08;;;;;;;0.93;0.70;;;;;;;;;;4988219;28;20216;-86
2023/04/13 14:40:35;;;;;;;0.80;0.77;;;;;;;;;;4987586;28;20307;-86
2023/04/13 14:43:02;;;;;;;1.85;1.08;;;;;;;;;;4997330;28;20236;-86
2023/04/13 14:45:29;;;;;;;1.85;0.85;;;;;;;;;;4983238;28;20207;-86
2023/04/13 14:47:58;;;;;;;1.52;1.00;;;;;;;;;;4992531;28;20678;-86
2023/04/13 14:50:25;;;;;;;1.73;0.82;;;;;;;;;;4993008;28;20809;-86